createdAt,value
2022-12-18T00:02:19.011Z,24.35
2022-12-18T00:04:46.203Z,24.83
2022-12-18T00:07:12.990Z,22.88
2022-12-18T00:09:40.623Z,21.73
2022-12-18T00:14:43.014Z,21.38
2022-12-18T00:17:10.083Z,20.50
2022-12-18T00:19:36.893Z,19.83
2022-12-18T00:22:03.912Z,21.30
2022-12-18T00:24:30.711Z,20.70
2022-12-18T00:26:57.452Z,20.98
2022-12-18T00:29:24.168Z,20.60
2022-12-18T00:31:51.009Z,20.92
2022-12-18T00:34:17.856Z,20.75
2022-12-18T00:36:44.572Z,20.23
2022-12-18T00:39:12.697Z,20.92
2022-12-18T00:41:57.904Z,21.67
2022-12-18T00:44:24.583Z,21.70
2022-12-18T00:46:51.355Z,19.88
2022-12-18T00:49:19.971Z,20.98
2022-12-18T00:51:47.158Z,20.23
2022-12-18T00:54:14.420Z,20.85
2022-12-18T00:56:48.267Z,20.88
2022-12-18T00:59:16.237Z,20.83
2022-12-18T01:01:43.604Z,20.80
2022-12-18T01:04:10.615Z,21.50
2022-12-18T01:06:37.452Z,20.95
2022-12-18T01:09:04.921Z,21.85
2022-12-18T01:11:31.891Z,20.58
2022-12-18T01:13:58.627Z,21.63
2022-12-18T01:16:25.573Z,20.40
2022-12-18T01:18:54.887Z,20.25
2022-12-18T01:21:22.853Z,20.15
2022-12-18T01:23:53.101Z,19.88
2022-12-18T01:26:20.530Z,20.15
2022-12-18T01:28:47.478Z,20.08
2022-12-18T01:31:34.083Z,20.55
2022-12-18T01:34:05.458Z,20.15
2022-12-18T01:36:35.068Z,19.35
2022-12-18T01:39:04.494Z,20.33
2022-12-18T01:41:52.856Z,21.13
2022-12-18T01:44:47.548Z,19.58
2022-12-18T01:47:22.491Z,20.73
2022-12-18T01:49:49.365Z,19.63
2022-12-18T01:52:18.006Z,21.13
2022-12-18T01:54:46.288Z,21.27
2022-12-18T01:57:13.057Z,20.63
2022-12-18T01:59:42.394Z,20.67
2022-12-18T02:02:09.482Z,21.95
2022-12-18T02:04:36.347Z,20.98
2022-12-18T02:07:36.664Z,21.10
2022-12-18T02:10:28.337Z,21.30
2022-12-18T02:13:13.410Z,21.17
2022-12-18T02:15:54.387Z,21.80
2022-12-18T02:18:37.757Z,20.67
2022-12-18T02:21:10.480Z,20.10
2022-12-18T02:24:15.355Z,21.23
2022-12-18T02:26:48.414Z,21.50
2022-12-18T02:29:23.872Z,21.13
2022-12-18T02:31:54.656Z,21.33
2022-12-18T02:34:24.990Z,22.13
2022-12-18T02:36:54.597Z,20.88
2022-12-18T02:39:24.624Z,21.20
2022-12-18T02:41:52.380Z,20.58
2022-12-18T02:44:19.166Z,21.13
2022-12-18T02:46:53.993Z,20.42
2022-12-18T02:49:42.174Z,20.15
2022-12-18T02:52:22.234Z,21.48
2022-12-18T02:55:07.421Z,20.20
2022-12-18T02:58:10.436Z,20.15
2022-12-18T03:00:37.111Z,19.42
2022-12-18T03:03:15.411Z,20.42
2022-12-18T03:05:54.897Z,21.25
2022-12-18T03:08:25.055Z,19.77
2022-12-18T03:11:04.793Z,20.23
2022-12-18T03:13:57.200Z,19.08
2022-12-18T03:16:29.316Z,20.25
2022-12-18T03:19:03.005Z,20.55
2022-12-18T03:21:36.517Z,20.75
2022-12-18T03:24:07.039Z,14.60
2022-12-18T03:26:36.239Z,20.02
2022-12-18T03:29:10.861Z,19.83
2022-12-18T03:31:40.598Z,19.85
2022-12-18T03:34:14.383Z,21.50
2022-12-18T03:36:41.436Z,21.58
2022-12-18T03:39:08.335Z,20.95
2022-12-18T03:41:52.649Z,19.60
2022-12-18T03:44:27.708Z,21.17
2022-12-18T03:47:08.120Z,21.13
2022-12-18T03:50:21.835Z,21.40
2022-12-18T03:52:55.832Z,21.25
2022-12-18T03:55:24.534Z,20.10
2022-12-18T03:57:53.601Z,21.38
2022-12-18T04:00:21.442Z,21.50
2022-12-18T04:02:55.036Z,20.55
2022-12-18T04:05:24.400Z,22.05
2022-12-18T04:07:52.844Z,21.55
2022-12-18T04:10:19.825Z,21.70
2022-12-18T04:12:46.592Z,21.52
2022-12-18T04:15:14.631Z,21.60
2022-12-18T04:17:49.598Z,20.25
2022-12-18T04:20:16.575Z,20.50
2022-12-18T04:22:43.673Z,20.02
2022-12-18T04:25:10.491Z,19.35
2022-12-18T04:27:37.208Z,18.88
2022-12-18T04:30:04.575Z,18.88
2022-12-18T04:32:35.038Z,18.73
2022-12-18T04:35:02.019Z,19.65
2022-12-18T04:37:28.923Z,19.40
2022-12-18T04:39:55.610Z,19.52
2022-12-18T04:42:22.380Z,19.58
2022-12-18T04:44:49.163Z,20.13
2022-12-18T04:47:15.952Z,19.25
2022-12-18T04:49:42.658Z,20.35
2022-12-18T04:52:09.363Z,21.45
2022-12-18T04:54:36.118Z,20.55
2022-12-18T04:57:02.850Z,20.25
2022-12-18T04:59:29.659Z,20.10
2022-12-18T05:01:56.492Z,19.85
2022-12-18T05:04:23.352Z,18.90
2022-12-18T05:06:50.145Z,20.85
2022-12-18T05:09:16.840Z,19.95
2022-12-18T05:11:43.967Z,22.00
2022-12-18T05:14:10.781Z,21.60
2022-12-18T05:16:37.861Z,20.55
2022-12-18T05:19:04.622Z,20.35
2022-12-18T05:21:31.409Z,21.63
2022-12-18T05:23:58.133Z,27.00
2022-12-18T05:26:24.837Z,28.80
2022-12-18T05:28:51.617Z,29.02
2022-12-18T05:31:18.631Z,29.65
2022-12-18T05:33:45.463Z,30.38
2022-12-18T05:36:12.757Z,28.75
2022-12-18T05:38:40.442Z,28.25
2022-12-18T05:41:08.310Z,24.60
2022-12-18T05:43:37.377Z,21.55
2022-12-18T05:46:06.573Z,20.75
2022-12-18T05:48:33.462Z,21.90
2022-12-18T05:51:06.929Z,22.33
2022-12-18T05:53:34.219Z,17.50
2022-12-18T05:56:05.988Z,23.25
2022-12-18T05:58:33.249Z,21.20
2022-12-18T06:01:12.023Z,21.65
2022-12-18T06:03:39.490Z,21.27
2022-12-18T06:06:21.335Z,20.40
2022-12-18T06:08:48.318Z,41.42
2022-12-18T06:11:19.138Z,22.17
2022-12-18T06:13:46.449Z,22.27
2022-12-18T06:16:13.364Z,20.58
2022-12-18T06:18:40.173Z,26.10
2022-12-18T06:21:07.132Z,20.52
2022-12-18T06:23:35.383Z,20.30
2022-12-18T06:26:10.215Z,19.90
2022-12-18T06:28:37.189Z,19.38
2022-12-18T06:31:05.609Z,18.75
2022-12-18T06:33:33.697Z,20.50
2022-12-18T06:36:06.271Z,19.23
2022-12-18T06:38:35.111Z,19.77
2022-12-18T06:41:01.796Z,19.92
2022-12-18T06:43:28.556Z,21.02
2022-12-18T06:46:02.021Z,20.58
2022-12-18T06:48:28.829Z,16.27
2022-12-18T06:50:55.974Z,21.90
2022-12-18T06:53:22.844Z,21.75
2022-12-18T06:55:50.771Z,21.45
2022-12-18T06:58:18.264Z,24.05
2022-12-18T07:00:45.120Z,21.90
2022-12-18T07:03:12.695Z,22.88
2022-12-18T07:05:42.512Z,20.30
2022-12-18T07:08:09.247Z,21.70
2022-12-18T07:10:48.178Z,21.58
2022-12-18T07:13:16.878Z,22.67
2022-12-18T07:15:44.577Z,21.25
2022-12-18T07:18:12.111Z,21.10
2022-12-18T07:20:38.991Z,19.60
2022-12-18T07:23:06.295Z,19.83
2022-12-18T07:25:37.062Z,25.73
2022-12-18T07:28:05.080Z,21.42
2022-12-18T07:30:31.863Z,20.55
2022-12-18T07:32:58.557Z,30.55
2022-12-18T07:35:25.648Z,20.80
2022-12-18T07:37:52.459Z,26.63
2022-12-18T07:40:19.388Z,30.02
2022-12-18T07:42:46.156Z,22.15
2022-12-18T07:45:12.948Z,21.48
2022-12-18T07:47:39.702Z,20.77
2022-12-18T07:50:07.116Z,20.05
2022-12-18T07:52:34.102Z,24.60
2022-12-18T07:55:00.898Z,20.15
2022-12-18T07:57:49.597Z,20.75
2022-12-18T08:00:15.089Z,21.42
2022-12-18T08:02:42.322Z,20.60
2022-12-18T08:05:09.482Z,20.25
2022-12-18T08:07:36.212Z,19.98
2022-12-18T08:10:03.241Z,22.25
2022-12-18T08:12:30.838Z,20.15
2022-12-18T08:14:57.625Z,21.55
2022-12-18T08:17:24.525Z,21.23
2022-12-18T08:19:51.260Z,19.90
2022-12-18T08:22:18.362Z,18.60
2022-12-18T08:24:45.910Z,19.67
2022-12-18T08:27:28.766Z,19.20
2022-12-18T08:29:56.668Z,20.05
2022-12-18T08:32:23.661Z,19.45
2022-12-18T08:34:50.585Z,19.92
2022-12-18T08:37:17.270Z,18.10
2022-12-18T08:39:44.036Z,18.13
2022-12-18T08:42:29.783Z,19.83
2022-12-18T08:44:56.565Z,20.63
2022-12-18T08:47:23.286Z,19.55
2022-12-18T08:49:50.026Z,20.20
2022-12-18T08:52:16.708Z,24.73
2022-12-18T08:54:43.844Z,20.80
2022-12-18T08:57:10.599Z,20.15
2022-12-18T08:59:37.360Z,19.45
2022-12-18T09:02:04.247Z,20.13
2022-12-18T09:04:31.161Z,23.77
2022-12-18T09:06:57.854Z,19.48
2022-12-18T09:09:24.577Z,20.10
2022-12-18T09:11:51.285Z,18.83
2022-12-18T09:14:18.001Z,19.30
2022-12-18T09:16:44.838Z,17.55
2022-12-18T09:19:11.862Z,15.45
2022-12-18T09:21:42.272Z,20.55
2022-12-18T09:24:16.987Z,16.83
2022-12-18T09:26:47.255Z,16.58
2022-12-18T09:29:15.579Z,16.15
2022-12-18T09:31:43.265Z,17.23
2022-12-18T09:34:09.962Z,15.93
2022-12-18T09:36:36.821Z,17.77
2022-12-18T09:39:08.116Z,15.70
2022-12-18T09:41:48.929Z,17.48
2022-12-18T09:44:27.276Z,17.45
2022-12-18T09:47:19.451Z,18.15
2022-12-18T09:49:51.727Z,15.75
2022-12-18T09:52:40.263Z,16.10
2022-12-18T09:55:15.277Z,16.17
2022-12-18T09:57:48.957Z,16.70
2022-12-18T10:00:23.010Z,12.75
2022-12-18T10:02:53.266Z,17.80
2022-12-18T10:05:40.379Z,17.13
2022-12-18T10:08:14.288Z,16.98
2022-12-18T10:11:02.591Z,16.00
2022-12-18T10:13:54.362Z,15.60
2022-12-18T10:16:33.955Z,15.30
2022-12-18T10:19:28.491Z,15.90
2022-12-18T10:22:20.155Z,15.43
2022-12-18T10:25:19.758Z,15.68
2022-12-18T10:27:47.342Z,14.50
2022-12-18T10:30:17.351Z,26.67
2022-12-18T10:32:44.222Z,14.75
2022-12-18T10:35:29.163Z,15.43
2022-12-18T10:38:17.090Z,15.00
2022-12-18T10:41:15.307Z,15.40
2022-12-18T10:43:42.071Z,14.52
2022-12-18T10:46:08.894Z,14.25
2022-12-18T10:48:41.870Z,17.70
2022-12-18T10:51:12.436Z,12.03
2022-12-18T10:53:42.824Z,15.57
2022-12-18T10:56:09.950Z,16.45
2022-12-18T10:58:39.709Z,15.48
2022-12-18T11:01:08.803Z,15.82
2022-12-18T11:03:47.380Z,15.88
2022-12-18T11:06:16.921Z,17.25
2022-12-18T11:08:57.728Z,18.60
2022-12-18T11:11:25.743Z,42.00
2022-12-18T11:13:58.148Z,24.17
2022-12-18T11:16:25.180Z,24.77
2022-12-18T11:18:52.346Z,15.65
2022-12-18T11:21:19.170Z,18.77
2022-12-18T11:23:52.500Z,15.48
2022-12-18T11:26:19.945Z,14.50
2022-12-18T11:28:48.701Z,16.73
2022-12-18T11:31:25.020Z,18.20
2022-12-18T11:34:31.280Z,17.10
2022-12-18T11:37:01.860Z,14.70
2022-12-18T11:39:35.000Z,14.82
2022-12-18T11:42:12.354Z,15.50
2022-12-18T11:44:49.971Z,15.65
2022-12-18T11:47:39.946Z,14.90
2022-12-18T11:50:24.091Z,17.67
2022-12-18T11:52:56.068Z,17.85
2022-12-18T11:58:06.215Z,18.30
2022-12-18T12:00:36.112Z,15.68
2022-12-18T12:03:25.506Z,27.77
2022-12-18T12:06:17.125Z,32.13
2022-12-18T12:08:49.709Z,17.33
2022-12-18T12:11:49.438Z,23.90
2022-12-18T12:14:24.768Z,20.17
2022-12-18T12:17:17.595Z,16.33
2022-12-18T12:19:58.336Z,19.20
2022-12-18T12:22:42.134Z,15.90
2022-12-18T12:25:17.667Z,12.95
2022-12-18T12:27:50.445Z,17.20
2022-12-18T12:30:43.345Z,17.10
2022-12-18T12:33:12.924Z,20.52
2022-12-18T12:36:04.232Z,16.58
2022-12-18T12:38:49.785Z,19.92
2022-12-18T12:41:40.264Z,17.15
2022-12-18T12:44:15.272Z,29.15
2022-12-18T12:46:44.607Z,17.85
2022-12-18T12:49:16.881Z,17.42
2022-12-18T12:51:49.904Z,15.13
2022-12-18T12:54:24.232Z,14.07
2022-12-18T12:57:18.365Z,18.50
2022-12-18T13:00:07.549Z,15.13
2022-12-18T13:02:50.541Z,16.88
2022-12-18T13:05:35.549Z,18.40
2022-12-18T13:08:11.290Z,17.80
2022-12-18T13:10:43.811Z,17.48
2022-12-18T13:13:17.356Z,16.33
2022-12-18T13:16:09.456Z,17.00
2022-12-18T13:18:36.581Z,19.95
2022-12-18T13:21:18.845Z,17.63
2022-12-18T13:23:46.283Z,19.55
2022-12-18T13:26:31.328Z,16.35
2022-12-18T13:28:59.707Z,16.92
2022-12-18T13:31:41.832Z,20.33
2022-12-18T13:34:26.881Z,18.58
2022-12-18T13:36:56.877Z,26.73
2022-12-18T13:39:34.845Z,18.00
2022-12-18T13:42:08.662Z,17.52
2022-12-18T13:44:41.624Z,14.00
2022-12-18T13:47:33.450Z,18.27
2022-12-18T13:50:01.481Z,20.33
2022-12-18T13:52:34.555Z,16.75
2022-12-18T13:55:06.206Z,19.90
2022-12-18T13:57:36.613Z,17.83
2022-12-18T14:00:29.949Z,19.10
2022-12-18T14:03:00.959Z,17.80
2022-12-18T14:05:33.440Z,18.42
2022-12-18T14:08:21.437Z,15.02
2022-12-18T14:10:51.992Z,19.52
2022-12-18T14:13:30.355Z,18.58
2022-12-18T14:15:58.983Z,20.83
2022-12-18T14:18:42.923Z,19.95
2022-12-18T14:21:28.822Z,29.92
2022-12-18T14:24:24.977Z,19.15
2022-12-18T14:26:52.221Z,19.85
2022-12-18T14:29:31.179Z,17.90
2022-12-18T14:32:17.896Z,17.73
2022-12-18T14:34:52.876Z,19.38
2022-12-18T14:37:23.827Z,18.75
2022-12-18T14:39:59.416Z,18.42
2022-12-18T14:42:29.270Z,17.25
2022-12-18T14:45:41.083Z,17.73
2022-12-18T14:48:18.236Z,18.02
2022-12-18T14:51:23.432Z,19.70
2022-12-18T14:53:57.183Z,17.70
2022-12-18T14:56:33.533Z,18.88
2022-12-18T14:59:19.249Z,18.88
2022-12-18T15:02:06.361Z,18.42
2022-12-18T15:04:42.500Z,19.42
2022-12-18T15:07:23.553Z,22.35
2022-12-18T15:10:12.472Z,18.40
2022-12-18T15:12:49.533Z,17.60
2022-12-18T15:15:34.865Z,17.25
2022-12-18T15:18:08.076Z,18.63
2022-12-18T15:20:44.573Z,21.08
2022-12-18T15:23:44.927Z,20.67
2022-12-18T15:26:15.561Z,23.83
2022-12-18T15:28:46.774Z,19.33
2022-12-18T15:31:13.528Z,19.20
2022-12-18T15:33:54.966Z,22.42
2022-12-18T15:36:26.429Z,20.95
2022-12-18T15:38:56.156Z,23.60
2022-12-18T15:41:35.263Z,20.58
2022-12-18T15:44:04.497Z,20.25
2022-12-18T15:46:32.102Z,18.98
2022-12-18T15:49:02.136Z,21.13
2022-12-18T15:51:35.375Z,21.80
2022-12-18T15:54:05.993Z,20.00
2022-12-18T15:56:52.044Z,18.50
2022-12-18T15:59:20.893Z,26.02
2022-12-18T16:01:49.740Z,20.42
2022-12-18T16:04:18.881Z,30.70
2022-12-18T16:07:13.332Z,27.88
2022-12-18T16:09:32.273Z,21.25
2022-12-18T16:11:59.247Z,20.90
2022-12-18T16:14:28.083Z,21.35
2022-12-18T16:17:00.643Z,19.20
2022-12-18T16:19:28.288Z,20.05
2022-12-18T16:21:56.950Z,18.70
2022-12-18T16:24:26.522Z,21.02
2022-12-18T16:26:54.806Z,20.52
2022-12-18T16:29:28.153Z,22.13
2022-12-18T16:31:59.879Z,14.90
2022-12-18T16:34:35.220Z,20.67
2022-12-18T16:37:07.630Z,19.33
2022-12-18T16:39:35.568Z,21.25
2022-12-18T16:42:05.885Z,20.40
2022-12-18T16:44:34.025Z,21.33
2022-12-18T16:47:03.034Z,24.38
2022-12-18T16:49:30.694Z,25.58
2022-12-18T16:51:57.756Z,22.77
2022-12-18T16:54:25.139Z,20.17
2022-12-18T16:56:52.246Z,21.38
2022-12-18T16:59:19.862Z,20.63
2022-12-18T17:01:47.233Z,20.63
2022-12-18T17:04:15.178Z,30.13
2022-12-18T17:06:48.381Z,38.90
2022-12-18T17:09:17.409Z,29.10
2022-12-18T17:11:44.942Z,27.38
2022-12-18T17:14:18.364Z,23.75
2022-12-18T17:16:46.514Z,22.20
2022-12-18T17:19:17.251Z,22.27
2022-12-18T17:21:45.738Z,21.00
2022-12-18T17:24:12.640Z,22.23
2022-12-18T17:26:39.669Z,21.52
2022-12-18T17:29:06.493Z,22.20
2022-12-18T17:31:33.845Z,21.98
2022-12-18T17:34:03.160Z,23.38
2022-12-18T17:36:32.005Z,21.88
2022-12-18T17:39:01.190Z,22.15
2022-12-18T17:41:29.419Z,23.13
2022-12-18T17:43:59.007Z,22.08
2022-12-18T17:46:27.492Z,22.55
2022-12-18T17:48:58.555Z,20.85
2022-12-18T17:51:26.007Z,20.23
2022-12-18T17:53:53.195Z,23.30
2022-12-18T17:56:21.920Z,21.77
2022-12-18T17:58:50.314Z,21.75
2022-12-18T18:01:23.319Z,22.17
2022-12-18T18:03:51.695Z,20.42
2022-12-18T18:06:20.909Z,22.85
2022-12-18T18:08:48.097Z,22.00
2022-12-18T18:11:36.437Z,23.25
2022-12-18T18:14:07.233Z,21.77
2022-12-18T18:16:35.324Z,22.33
2022-12-18T18:19:05.256Z,23.13
2022-12-18T18:21:32.969Z,21.80
2022-12-18T18:24:03.682Z,22.55
2022-12-18T18:26:35.506Z,22.48
2022-12-18T18:29:05.116Z,22.67
2022-12-18T18:31:36.296Z,23.13
2022-12-18T18:34:08.107Z,23.40
2022-12-18T18:36:34.959Z,22.70
2022-12-18T18:39:02.354Z,23.27
2022-12-18T18:41:30.669Z,23.00
2022-12-18T18:43:58.696Z,21.88
2022-12-18T18:46:25.987Z,23.90
2022-12-18T18:48:53.088Z,24.00
2022-12-18T18:51:21.580Z,23.90
2022-12-18T18:53:50.191Z,24.52
2022-12-18T18:56:56.371Z,23.35
2022-12-18T18:59:06.860Z,25.00
2022-12-18T19:01:33.701Z,24.15
2022-12-18T19:04:02.493Z,36.63
2022-12-18T19:06:29.829Z,26.00
2022-12-18T19:08:57.700Z,24.42
2022-12-18T19:11:44.455Z,24.60
2022-12-18T19:14:13.626Z,24.25
2022-12-18T19:16:40.924Z,24.10
2022-12-18T19:19:08.030Z,27.75
2022-12-18T19:21:35.546Z,25.38
2022-12-18T19:24:02.739Z,26.45
2022-12-18T19:26:29.628Z,24.10
2022-12-18T19:29:08.141Z,24.60
2022-12-18T19:31:37.222Z,24.52
2022-12-18T19:34:08.023Z,24.92
2022-12-18T19:36:37.714Z,24.48
2022-12-18T19:39:10.838Z,25.80
2022-12-18T19:41:38.055Z,26.77
2022-12-18T19:44:07.596Z,26.02
2022-12-18T19:46:36.175Z,26.17
2022-12-18T19:49:07.563Z,25.13
2022-12-18T19:51:34.455Z,25.35
2022-12-18T19:54:02.451Z,24.77
2022-12-18T19:56:32.401Z,27.48
2022-12-18T19:59:00.313Z,26.08
2022-12-18T20:01:28.541Z,25.88
2022-12-18T20:03:56.795Z,26.42
2022-12-18T20:06:29.156Z,26.77
2022-12-18T20:09:00.516Z,24.67
2022-12-18T20:11:29.608Z,24.80
2022-12-18T20:13:57.352Z,27.50
2022-12-18T20:16:24.135Z,25.75
2022-12-18T20:18:50.943Z,27.83
2022-12-18T20:21:18.973Z,27.90
2022-12-18T20:23:46.570Z,27.20
2022-12-18T20:26:13.345Z,24.83
2022-12-18T20:28:40.501Z,26.92
2022-12-18T20:31:13.241Z,27.38
2022-12-18T20:33:41.911Z,27.38
2022-12-18T20:36:14.449Z,26.80
2022-12-18T20:38:42.980Z,27.27
2022-12-18T20:41:16.345Z,30.00
2022-12-18T20:43:44.103Z,27.85
2022-12-18T20:46:13.550Z,28.65
2022-12-18T20:48:40.449Z,29.17
2022-12-18T20:51:13.443Z,30.27
2022-12-18T20:53:41.710Z,28.83
2022-12-18T20:56:11.888Z,28.23
2022-12-18T20:58:38.772Z,28.55
2022-12-18T21:01:15.059Z,28.27
2022-12-18T21:03:43.884Z,30.08
2022-12-18T21:06:11.279Z,29.75
2022-12-18T21:08:38.424Z,31.50
2022-12-18T21:11:46.017Z,31.00
2022-12-18T21:14:19.613Z,29.30
2022-12-18T21:16:47.379Z,30.27
2022-12-18T21:19:17.857Z,28.67
2022-12-18T21:21:45.347Z,28.60
2022-12-18T21:24:13.102Z,30.73
2022-12-18T21:26:45.078Z,31.85
2022-12-18T21:29:15.356Z,29.42
2022-12-18T21:31:42.865Z,32.88
2022-12-18T21:34:19.603Z,31.13
2022-12-18T21:36:46.713Z,31.90
2022-12-18T21:39:14.819Z,32.55
2022-12-18T21:42:00.640Z,32.17
2022-12-18T21:44:27.854Z,32.72
2022-12-18T21:46:58.973Z,32.72
2022-12-18T21:49:28.328Z,32.33
2022-12-18T21:51:57.508Z,32.95
2022-12-18T21:54:25.439Z,33.85
2022-12-18T21:57:00.913Z,32.30
2022-12-18T21:59:39.188Z,33.05
2022-12-18T22:02:10.248Z,32.78
2022-12-18T22:04:37.056Z,30.30
2022-12-18T22:07:05.189Z,32.35
2022-12-18T22:09:32.441Z,30.50
2022-12-18T22:11:59.340Z,33.28
2022-12-18T22:14:26.488Z,30.38
2022-12-18T22:16:53.713Z,31.42
2022-12-18T22:19:21.779Z,32.15
2022-12-18T22:21:49.446Z,31.65
2022-12-18T22:24:21.889Z,30.60
2022-12-18T22:26:50.302Z,32.08
2022-12-18T22:29:43.329Z,31.38
2022-12-18T22:32:15.751Z,30.10
2022-12-18T22:34:43.830Z,30.40
2022-12-18T22:37:13.157Z,29.30
2022-12-18T22:39:40.184Z,32.28
2022-12-18T22:42:07.654Z,31.05
2022-12-18T22:44:34.590Z,30.15
2022-12-18T22:47:05.965Z,29.48
2022-12-18T22:49:33.867Z,30.00
2022-12-18T22:52:01.996Z,31.23
2022-12-18T22:54:28.773Z,32.45
2022-12-18T22:56:55.581Z,33.83
2022-12-18T22:59:23.341Z,34.33
2022-12-18T23:01:58.721Z,33.17
2022-12-18T23:04:35.873Z,31.55
2022-12-18T23:07:05.019Z,31.42
2022-12-18T23:09:32.686Z,31.90
2022-12-18T23:11:59.503Z,32.10
2022-12-18T23:14:26.272Z,31.98
2022-12-18T23:16:53.348Z,31.60
2022-12-18T23:19:20.605Z,31.40
2022-12-18T23:21:47.648Z,31.77
2022-12-18T23:24:15.836Z,31.55
2022-12-18T23:26:43.226Z,30.60
2022-12-18T23:29:10.035Z,30.35
2022-12-18T23:31:39.248Z,30.35
2022-12-18T23:34:06.916Z,31.63
2022-12-18T23:36:45.284Z,30.55
2022-12-18T23:39:17.466Z,29.90
2022-12-18T23:41:58.300Z,30.15
2022-12-18T23:44:25.388Z,30.13
2022-12-18T23:46:52.298Z,30.20
2022-12-18T23:49:19.425Z,31.27
2022-12-18T23:51:46.099Z,30.55
2022-12-18T23:54:12.824Z,29.77
2022-12-18T23:56:39.486Z,29.48
2022-12-18T23:59:06.235Z,29.58
